EWG4R EDDK-LFMN
Flight info
| Callsign | EWG4R |
|---|---|
| Flight time | 1h 38m |
| Altitude | 37000 |
| Route | KUMIK1R/31R KUMIK Y854 BOMBI DCT GIGET DCT ABUKA DCT KRH DCT NATOR DCT TRA DCT RIPUS DCT GERSA DCT SOSON DCT ODINA DCT ENOBA Z185 BORDI BORDI8R |
| Aircraft | A320/M-SDE2E3FGIJ1RWXY/HB1 |
Departure
| Time | 2026-04-26 16:39 |
|---|---|
| Airport | Cologne Bonn Airport (EDDK) |
Arrival
| Time | 2026-04-26 18:17 |
|---|---|
| Airport | Nice-Côte d'Azur Airport (LFMN) |
| Time | Latitude | Longitude | Altitude | Speed | Heading |
|---|---|---|---|---|---|
| 2026-04-26 15:05 | 50.87658 | 7.12235 | 235 ft | 0 kts | 52° |
| 2026-04-26 15:07 | 50.87656 | 7.12231 | 235 ft | 0 kts | 52° |
| 2026-04-26 16:27 | 50.87643 | 7.12204 | 235 ft | 4 kts | 52° |
| 2026-04-26 16:27 | 50.87630 | 7.12177 | 235 ft | 4 kts | 60° |
| 2026-04-26 16:28 | 50.87621 | 7.12139 | 235 ft | 4 kts | 92° |
| 2026-04-26 16:28 | 50.87625 | 7.12111 | 232 ft | 0 kts | 117° |
| 2026-04-26 16:30 | 50.87622 | 7.12118 | 232 ft | 3 kts | 117° |
| 2026-04-26 16:31 | 50.87607 | 7.12166 | 233 ft | 7 kts | 117° |
| 2026-04-26 16:31 | 50.87584 | 7.12235 | 232 ft | 7 kts | 118° |
| 2026-04-26 16:31 | 50.87547 | 7.12345 | 232 ft | 15 kts | 117° |
| 2026-04-26 16:31 | 50.87604 | 7.12467 | 232 ft | 18 kts | 19° |
| 2026-04-26 16:32 | 50.87720 | 7.12527 | 232 ft | 16 kts | 18° |
| 2026-04-26 16:32 | 50.87764 | 7.12693 | 232 ft | 19 kts | 112° |
| 2026-04-26 16:32 | 50.87662 | 7.12856 | 232 ft | 23 kts | 138° |
| 2026-04-26 16:32 | 50.87535 | 7.13036 | 232 ft | 22 kts | 137° |
| 2026-04-26 16:33 | 50.87434 | 7.13186 | 232 ft | 22 kts | 136° |
| 2026-04-26 16:33 | 50.87310 | 7.13362 | 232 ft | 26 kts | 138° |
| 2026-04-26 16:33 | 50.87172 | 7.13563 | 237 ft | 28 kts | 137° |
| 2026-04-26 16:33 | 50.87027 | 7.13772 | 243 ft | 26 kts | 137° |
| 2026-04-26 16:34 | 50.86896 | 7.13962 | 252 ft | 23 kts | 137° |
| 2026-04-26 16:34 | 50.86786 | 7.14121 | 255 ft | 17 kts | 144° |
| 2026-04-26 16:34 | 50.86712 | 7.14157 | 257 ft | 9 kts | 111° |
| 2026-04-26 16:34 | 50.86664 | 7.14236 | 260 ft | 15 kts | 139° |
| 2026-04-26 16:35 | 50.86554 | 7.14398 | 262 ft | 26 kts | 137° |
| 2026-04-26 16:35 | 50.86420 | 7.14593 | 271 ft | 26 kts | 138° |
| 2026-04-26 16:35 | 50.86283 | 7.14789 | 279 ft | 27 kts | 137° |
| 2026-04-26 16:35 | 50.86144 | 7.14991 | 286 ft | 28 kts | 137° |
| 2026-04-26 16:36 | 50.86045 | 7.15180 | 292 ft | 21 kts | 103° |
| 2026-04-26 16:36 | 50.86120 | 7.15358 | 290 ft | 21 kts | 15° |
| 2026-04-26 16:36 | 50.86227 | 7.15335 | 288 ft | 8 kts | 347° |
| 2026-04-26 16:36 | 50.86305 | 7.15307 | 287 ft | 14 kts | 351° |
| 2026-04-26 16:37 | 50.86376 | 7.15336 | 285 ft | 7 kts | 306° |
| 2026-04-26 16:37 | 50.86399 | 7.15296 | 284 ft | 0 kts | 318° |
| 2026-04-26 16:38 | 50.86452 | 7.15221 | 282 ft | 36 kts | 318° |
| 2026-04-26 16:38 | 50.86835 | 7.14664 | 264 ft | 109 kts | 317° |
| 2026-04-26 16:38 | 50.87532 | 7.13657 | 399 ft | 148 kts | 316° |
| 2026-04-26 16:39 | 50.88306 | 7.12550 | 1030 ft | 151 kts | 317° |
| 2026-04-26 16:39 | 50.89120 | 7.11485 | 1645 ft | 158 kts | 335° |
| 2026-04-26 16:39 | 50.90253 | 7.11339 | 2022 ft | 177 kts | 18° |
| 2026-04-26 16:39 | 50.91423 | 7.12197 | 2453 ft | 195 kts | 25° |
| 2026-04-26 16:40 | 50.92707 | 7.13198 | 2928 ft | 213 kts | 30° |
| 2026-04-26 16:40 | 50.93777 | 7.14811 | 3794 ft | 217 kts | 58° |
| 2026-04-26 16:40 | 50.94478 | 7.16958 | 4646 ft | 221 kts | 63° |
| 2026-04-26 16:40 | 50.95180 | 7.19194 | 5291 ft | 236 kts | 63° |
| 2026-04-26 16:41 | 50.95951 | 7.21644 | 5726 ft | 260 kts | 62° |
| 2026-04-26 16:41 | 50.96784 | 7.24275 | 6444 ft | 272 kts | 62° |
| 2026-04-26 16:41 | 50.97633 | 7.26961 | 7305 ft | 277 kts | 61° |
| 2026-04-26 16:41 | 50.98503 | 7.29715 | 8194 ft | 281 kts | 60° |
| 2026-04-26 16:42 | 50.99383 | 7.32506 | 9081 ft | 285 kts | 60° |
| 2026-04-26 16:42 | 51.00277 | 7.35350 | 9963 ft | 290 kts | 60° |
| 2026-04-26 16:42 | 51.01143 | 7.38318 | 10789 ft | 297 kts | 68° |
| 2026-04-26 16:42 | 51.01589 | 7.41558 | 11609 ft | 305 kts | 83° |
| 2026-04-26 16:43 | 51.01518 | 7.45004 | 12091 ft | 326 kts | 98° |
| 2026-04-26 16:43 | 51.00889 | 7.48590 | 12492 ft | 345 kts | 106° |
| 2026-04-26 16:43 | 51.00149 | 7.52267 | 13106 ft | 353 kts | 106° |
| 2026-04-26 16:43 | 50.99401 | 7.56007 | 13490 ft | 358 kts | 106° |
| 2026-04-26 16:44 | 50.98634 | 7.59878 | 13762 ft | 378 kts | 106° |
| 2026-04-26 16:44 | 50.97830 | 7.63954 | 14033 ft | 394 kts | 106° |
| 2026-04-26 16:44 | 50.96996 | 7.68132 | 14203 ft | 400 kts | 108° |
| 2026-04-26 16:44 | 50.95629 | 7.72052 | 14248 ft | 415 kts | 130° |
| 2026-04-26 16:45 | 50.93391 | 7.74937 | 14258 ft | 417 kts | 150° |
| 2026-04-26 16:45 | 50.90911 | 7.77346 | 14251 ft | 419 kts | 144° |
| 2026-04-26 16:45 | 50.88604 | 7.80207 | 14616 ft | 423 kts | 142° |
| 2026-04-26 16:45 | 50.86278 | 7.83076 | 15431 ft | 419 kts | 143° |
| 2026-04-26 16:46 | 50.84003 | 7.85863 | 16560 ft | 411 kts | 143° |
| 2026-04-26 16:46 | 50.81743 | 7.88626 | 17346 ft | 412 kts | 143° |
| 2026-04-26 16:46 | 50.79495 | 7.91371 | 18038 ft | 415 kts | 143° |
| 2026-04-26 16:46 | 50.77172 | 7.94207 | 18695 ft | 418 kts | 143° |
| 2026-04-26 16:47 | 50.74859 | 7.97027 | 19242 ft | 422 kts | 144° |
| 2026-04-26 16:47 | 50.72323 | 7.99414 | 19776 ft | 424 kts | 159° |
| 2026-04-26 16:47 | 50.69502 | 8.00586 | 20298 ft | 424 kts | 175° |
| 2026-04-26 16:47 | 50.66577 | 8.01010 | 21111 ft | 415 kts | 177° |
| 2026-04-26 16:48 | 50.63727 | 8.01398 | 22123 ft | 409 kts | 177° |
| 2026-04-26 16:48 | 50.60888 | 8.01777 | 22856 ft | 408 kts | 177° |
| 2026-04-26 16:48 | 50.58059 | 8.02147 | 23585 ft | 408 kts | 177° |
| 2026-04-26 16:48 | 50.55217 | 8.02509 | 24130 ft | 411 kts | 177° |
| 2026-04-26 16:49 | 50.52353 | 8.02875 | 24614 ft | 414 kts | 177° |
| 2026-04-26 16:49 | 50.49473 | 8.03247 | 25073 ft | 417 kts | 177° |
| 2026-04-26 16:49 | 50.46560 | 8.03629 | 25531 ft | 421 kts | 177° |
| 2026-04-26 16:49 | 50.43639 | 8.04015 | 25970 ft | 424 kts | 177° |
| 2026-04-26 16:50 | 50.40688 | 8.04402 | 26402 ft | 426 kts | 177° |
| 2026-04-26 16:50 | 50.37723 | 8.04786 | 26819 ft | 429 kts | 177° |
| 2026-04-26 16:50 | 50.34736 | 8.05168 | 27208 ft | 433 kts | 177° |
| 2026-04-26 16:50 | 50.31716 | 8.05552 | 27598 ft | 436 kts | 177° |
| 2026-04-26 16:51 | 50.28689 | 8.05932 | 27984 ft | 439 kts | 177° |
| 2026-04-26 16:51 | 50.25637 | 8.06321 | 28373 ft | 442 kts | 177° |
| 2026-04-26 16:51 | 50.22566 | 8.06720 | 28755 ft | 445 kts | 177° |
| 2026-04-26 16:51 | 50.19470 | 8.07120 | 29125 ft | 448 kts | 177° |
| 2026-04-26 16:52 | 50.16360 | 8.07521 | 29483 ft | 451 kts | 177° |
| 2026-04-26 16:52 | 50.14280 | 8.07790 | 29721 ft | 452 kts | 177° |
| 2026-04-26 16:52 | 50.10069 | 8.08333 | 30153 ft | 457 kts | 177° |
| 2026-04-26 16:52 | 50.06889 | 8.08740 | 30445 ft | 459 kts | 177° |
| 2026-04-26 16:53 | 50.03703 | 8.09153 | 30687 ft | 460 kts | 177° |
| 2026-04-26 16:53 | 50.00508 | 8.09572 | 30935 ft | 462 kts | 177° |
| 2026-04-26 16:53 | 49.97297 | 8.09989 | 31164 ft | 463 kts | 177° |
| 2026-04-26 16:53 | 49.94084 | 8.10402 | 31390 ft | 464 kts | 177° |
| 2026-04-26 16:54 | 49.90874 | 8.10809 | 31836 ft | 462 kts | 177° |
| 2026-04-26 16:54 | 49.87677 | 8.11210 | 32226 ft | 460 kts | 177° |
| 2026-04-26 16:54 | 49.84494 | 8.11609 | 32508 ft | 459 kts | 177° |
| 2026-04-26 16:54 | 49.81313 | 8.12008 | 32774 ft | 457 kts | 178° |
| 2026-04-26 16:55 | 49.78151 | 8.12404 | 33039 ft | 456 kts | 178° |
| 2026-04-26 16:55 | 49.74995 | 8.12800 | 33184 ft | 456 kts | 178° |
| 2026-04-26 16:55 | 49.68678 | 8.13602 | 33225 ft | 454 kts | 178° |
| 2026-04-26 16:56 | 49.59260 | 8.14792 | 33223 ft | 452 kts | 178° |
| 2026-04-26 16:56 | 49.56127 | 8.15184 | 33407 ft | 452 kts | 178° |
| 2026-04-26 16:57 | 49.52992 | 8.15573 | 33829 ft | 451 kts | 178° |
| 2026-04-26 16:57 | 49.49867 | 8.15959 | 34254 ft | 450 kts | 178° |
| 2026-04-26 16:57 | 49.43648 | 8.16732 | 34920 ft | 448 kts | 178° |
| 2026-04-26 16:58 | 49.40538 | 8.17121 | 35226 ft | 447 kts | 178° |
| 2026-04-26 16:58 | 49.38492 | 8.17375 | 35427 ft | 447 kts | 178° |
| 2026-04-26 16:58 | 49.31243 | 8.18442 | 36052 ft | 448 kts | 176° |
| 2026-04-26 16:59 | 49.28145 | 8.18968 | 36188 ft | 448 kts | 176° |
| 2026-04-26 17:00 | 49.15762 | 8.21039 | 36213 ft | 448 kts | 176° |
| 2026-04-26 17:00 | 49.06474 | 8.22508 | 36208 ft | 447 kts | 176° |
| 2026-04-26 17:01 | 49.00317 | 8.23479 | 36193 ft | 447 kts | 176° |
| 2026-04-26 17:01 | 48.94085 | 8.24481 | 36196 ft | 447 kts | 176° |
| 2026-04-26 17:02 | 48.91032 | 8.24964 | 36326 ft | 446 kts | 176° |
| 2026-04-26 17:02 | 48.87943 | 8.25445 | 36587 ft | 447 kts | 176° |
| 2026-04-26 17:02 | 48.84848 | 8.25923 | 36849 ft | 446 kts | 176° |
| 2026-04-26 17:02 | 48.81760 | 8.26402 | 37101 ft | 447 kts | 176° |
| 2026-04-26 17:03 | 48.75525 | 8.27380 | 37193 ft | 449 kts | 176° |
| 2026-04-26 17:03 | 48.69299 | 8.28357 | 37194 ft | 450 kts | 176° |
| 2026-04-26 17:04 | 48.63071 | 8.29329 | 37192 ft | 450 kts | 176° |
| 2026-04-26 17:04 | 48.56838 | 8.30293 | 37193 ft | 450 kts | 176° |
| 2026-04-26 17:05 | 48.50610 | 8.31264 | 37192 ft | 450 kts | 176° |
| 2026-04-26 17:05 | 48.44382 | 8.32231 | 37192 ft | 450 kts | 176° |
| 2026-04-26 17:06 | 48.38145 | 8.33188 | 37200 ft | 450 kts | 176° |
| 2026-04-26 17:06 | 48.31924 | 8.34143 | 37186 ft | 450 kts | 176° |
| 2026-04-26 17:07 | 48.25698 | 8.35101 | 37198 ft | 450 kts | 176° |
| 2026-04-26 17:07 | 48.19470 | 8.36053 | 37194 ft | 450 kts | 176° |
| 2026-04-26 17:08 | 48.13242 | 8.37000 | 37179 ft | 450 kts | 176° |
| 2026-04-26 17:08 | 48.07017 | 8.37950 | 37183 ft | 450 kts | 176° |
| 2026-04-26 17:09 | 48.02898 | 8.38584 | 37179 ft | 449 kts | 176° |
| 2026-04-26 17:09 | 47.95622 | 8.39685 | 37184 ft | 449 kts | 176° |
| 2026-04-26 17:10 | 47.89403 | 8.40618 | 37170 ft | 449 kts | 176° |
| 2026-04-26 17:10 | 47.82178 | 8.41714 | 37174 ft | 449 kts | 176° |
| 2026-04-26 17:11 | 47.77045 | 8.42486 | 37177 ft | 449 kts | 176° |
| 2026-04-26 17:11 | 47.70840 | 8.43414 | 37189 ft | 448 kts | 176° |
| 2026-04-26 17:12 | 47.61556 | 8.44801 | 37194 ft | 446 kts | 176° |
| 2026-04-26 17:13 | 47.52288 | 8.46157 | 37199 ft | 446 kts | 177° |
| 2026-04-26 17:14 | 47.43030 | 8.47512 | 37191 ft | 446 kts | 177° |
| 2026-04-26 17:14 | 47.33779 | 8.48868 | 37191 ft | 446 kts | 177° |
| 2026-04-26 17:15 | 47.24522 | 8.50213 | 37176 ft | 445 kts | 176° |
| 2026-04-26 17:16 | 47.18358 | 8.51122 | 37174 ft | 445 kts | 176° |
| 2026-04-26 17:16 | 47.12188 | 8.52016 | 37174 ft | 453 kts | 177° |
| 2026-04-26 17:17 | 47.05842 | 8.52910 | 37155 ft | 461 kts | 177° |
| 2026-04-26 17:17 | 46.99472 | 8.53834 | 37167 ft | 453 kts | 176° |
| 2026-04-26 17:18 | 46.93262 | 8.54746 | 37167 ft | 446 kts | 176° |
| 2026-04-26 17:18 | 46.87092 | 8.55645 | 37167 ft | 445 kts | 177° |
| 2026-04-26 17:19 | 46.77878 | 8.56965 | 37161 ft | 443 kts | 177° |
| 2026-04-26 17:19 | 46.71745 | 8.57844 | 37156 ft | 442 kts | 177° |
| 2026-04-26 17:20 | 46.66653 | 8.58570 | 37159 ft | 442 kts | 177° |
| 2026-04-26 17:20 | 46.59534 | 8.59582 | 37139 ft | 442 kts | 177° |
| 2026-04-26 17:21 | 46.53409 | 8.60451 | 37147 ft | 442 kts | 177° |
| 2026-04-26 17:21 | 46.47250 | 8.61327 | 36889 ft | 440 kts | 177° |
| 2026-04-26 17:22 | 46.44221 | 8.61755 | 36638 ft | 436 kts | 177° |
| 2026-04-26 17:22 | 46.41208 | 8.62184 | 36383 ft | 434 kts | 177° |
| 2026-04-26 17:22 | 46.38202 | 8.62608 | 36100 ft | 434 kts | 177° |
| 2026-04-26 17:22 | 46.35198 | 8.63024 | 35835 ft | 434 kts | 177° |
| 2026-04-26 17:23 | 46.32193 | 8.63438 | 35573 ft | 434 kts | 177° |
| 2026-04-26 17:23 | 46.29187 | 8.63853 | 35318 ft | 434 kts | 177° |
| 2026-04-26 17:23 | 46.26174 | 8.64275 | 35088 ft | 435 kts | 177° |
| 2026-04-26 17:23 | 46.23165 | 8.64700 | 35052 ft | 434 kts | 177° |
| 2026-04-26 17:24 | 46.17086 | 8.65557 | 35053 ft | 446 kts | 177° |
| 2026-04-26 17:24 | 46.10883 | 8.66282 | 35054 ft | 449 kts | 183° |
| 2026-04-26 17:25 | 46.04694 | 8.65310 | 35079 ft | 447 kts | 191° |
| 2026-04-26 17:25 | 45.98597 | 8.64057 | 35089 ft | 446 kts | 191° |
| 2026-04-26 17:26 | 45.92414 | 8.62805 | 35090 ft | 445 kts | 191° |
| 2026-04-26 17:26 | 45.86280 | 8.61563 | 35092 ft | 445 kts | 191° |
| 2026-04-26 17:27 | 45.80153 | 8.60311 | 35088 ft | 445 kts | 191° |
| 2026-04-26 17:27 | 45.74025 | 8.59064 | 35092 ft | 444 kts | 191° |
| 2026-04-26 17:28 | 45.67904 | 8.57827 | 35087 ft | 444 kts | 191° |
| 2026-04-26 17:28 | 45.61787 | 8.56596 | 35081 ft | 444 kts | 191° |
| 2026-04-26 17:29 | 45.56710 | 8.55569 | 35088 ft | 443 kts | 191° |
| 2026-04-26 17:29 | 45.49570 | 8.54137 | 35076 ft | 444 kts | 191° |
| 2026-04-26 17:30 | 45.43431 | 8.52907 | 35081 ft | 447 kts | 191° |
| 2026-04-26 17:30 | 45.37277 | 8.51680 | 35084 ft | 446 kts | 191° |
| 2026-04-26 17:31 | 45.31136 | 8.50457 | 35084 ft | 446 kts | 191° |
| 2026-04-26 17:31 | 45.24990 | 8.49233 | 35077 ft | 445 kts | 191° |
| 2026-04-26 17:32 | 45.18858 | 8.48009 | 34801 ft | 445 kts | 191° |
| 2026-04-26 17:32 | 45.15799 | 8.47401 | 34556 ft | 444 kts | 191° |
| 2026-04-26 17:32 | 45.12747 | 8.46796 | 34317 ft | 443 kts | 192° |
| 2026-04-26 17:33 | 45.09687 | 8.46194 | 34085 ft | 443 kts | 191° |
| 2026-04-26 17:33 | 45.06679 | 8.45604 | 33814 ft | 444 kts | 191° |
| 2026-04-26 17:33 | 45.03573 | 8.44991 | 33536 ft | 447 kts | 191° |
| 2026-04-26 17:34 | 44.97387 | 8.43761 | 32998 ft | 450 kts | 191° |
| 2026-04-26 17:34 | 44.94286 | 8.43145 | 32727 ft | 451 kts | 191° |
| 2026-04-26 17:34 | 44.91174 | 8.42534 | 32465 ft | 452 kts | 191° |
| 2026-04-26 17:34 | 44.88055 | 8.41922 | 32194 ft | 453 kts | 190° |
| 2026-04-26 17:35 | 44.84924 | 8.41309 | 31937 ft | 456 kts | 190° |
| 2026-04-26 17:35 | 44.81769 | 8.40689 | 31688 ft | 458 kts | 190° |
| 2026-04-26 17:35 | 44.78613 | 8.40071 | 31434 ft | 459 kts | 190° |
| 2026-04-26 17:35 | 44.75448 | 8.39455 | 31185 ft | 460 kts | 189° |
| 2026-04-26 17:36 | 44.72274 | 8.38839 | 30831 ft | 461 kts | 189° |
| 2026-04-26 17:36 | 44.69092 | 8.38221 | 30471 ft | 462 kts | 189° |
| 2026-04-26 17:36 | 44.65906 | 8.37599 | 30090 ft | 463 kts | 190° |
| 2026-04-26 17:36 | 44.62724 | 8.36972 | 29664 ft | 460 kts | 190° |
| 2026-04-26 17:37 | 44.59563 | 8.36353 | 29245 ft | 457 kts | 190° |
| 2026-04-26 17:37 | 44.56423 | 8.35742 | 28832 ft | 454 kts | 190° |
| 2026-04-26 17:37 | 44.53301 | 8.35138 | 28362 ft | 451 kts | 189° |
| 2026-04-26 17:38 | 44.47147 | 8.33954 | 27303 ft | 442 kts | 189° |
| 2026-04-26 17:38 | 44.44112 | 8.33365 | 26799 ft | 438 kts | 189° |
| 2026-04-26 17:38 | 44.41105 | 8.32781 | 26297 ft | 435 kts | 189° |
| 2026-04-26 17:38 | 44.38114 | 8.32205 | 25811 ft | 432 kts | 189° |
| 2026-04-26 17:39 | 44.35184 | 8.31434 | 25317 ft | 426 kts | 197° |
| 2026-04-26 17:39 | 44.32424 | 8.30011 | 24838 ft | 420 kts | 207° |
| 2026-04-26 17:39 | 44.29916 | 8.27975 | 24373 ft | 415 kts | 217° |
| 2026-04-26 17:39 | 44.27724 | 8.25399 | 23910 ft | 410 kts | 226° |
| 2026-04-26 17:40 | 44.25887 | 8.22388 | 23401 ft | 406 kts | 235° |
| 2026-04-26 17:40 | 44.25364 | 8.21343 | 23218 ft | 405 kts | 236° |
| 2026-04-26 17:40 | 44.22695 | 8.15946 | 22321 ft | 400 kts | 236° |
| 2026-04-26 17:40 | 44.21112 | 8.12765 | 21752 ft | 398 kts | 236° |
| 2026-04-26 17:41 | 44.19539 | 8.09613 | 21215 ft | 395 kts | 236° |
| 2026-04-26 17:41 | 44.17972 | 8.06479 | 20681 ft | 393 kts | 236° |
| 2026-04-26 17:41 | 44.16410 | 8.03357 | 20170 ft | 391 kts | 236° |
| 2026-04-26 17:41 | 44.14861 | 8.00259 | 19659 ft | 389 kts | 236° |
| 2026-04-26 17:42 | 44.13319 | 7.97170 | 19166 ft | 388 kts | 236° |
| 2026-04-26 17:42 | 44.11784 | 7.94092 | 18679 ft | 386 kts | 236° |
| 2026-04-26 17:42 | 44.10251 | 7.91029 | 18172 ft | 385 kts | 236° |
| 2026-04-26 17:42 | 44.08725 | 7.88037 | 17657 ft | 384 kts | 232° |
| 2026-04-26 17:43 | 44.06753 | 7.85484 | 17363 ft | 385 kts | 214° |
| 2026-04-26 17:43 | 44.04457 | 7.83562 | 17148 ft | 386 kts | 211° |
| 2026-04-26 17:43 | 44.02142 | 7.81691 | 17141 ft | 386 kts | 211° |
| 2026-04-26 17:43 | 43.99817 | 7.79828 | 17144 ft | 395 kts | 211° |
| 2026-04-26 17:44 | 43.97420 | 7.77922 | 17144 ft | 397 kts | 211° |
| 2026-04-26 17:44 | 43.95032 | 7.76032 | 16696 ft | 394 kts | 210° |
| 2026-04-26 17:44 | 43.92656 | 7.74144 | 16170 ft | 393 kts | 210° |
| 2026-04-26 17:44 | 43.90296 | 7.72270 | 15737 ft | 389 kts | 210° |
| 2026-04-26 17:45 | 43.87976 | 7.70429 | 15472 ft | 381 kts | 210° |
| 2026-04-26 17:45 | 43.85690 | 7.68609 | 15064 ft | 377 kts | 210° |
| 2026-04-26 17:45 | 43.83419 | 7.66804 | 14627 ft | 375 kts | 210° |
| 2026-04-26 17:45 | 43.81160 | 7.65010 | 14176 ft | 374 kts | 210° |
| 2026-04-26 17:46 | 43.78883 | 7.63292 | 13698 ft | 372 kts | 204° |
| 2026-04-26 17:46 | 43.76429 | 7.62186 | 13212 ft | 370 kts | 191° |
| 2026-04-26 17:46 | 43.73882 | 7.61877 | 12726 ft | 367 kts | 178° |
| 2026-04-26 17:46 | 43.71342 | 7.61843 | 12237 ft | 365 kts | 188° |
| 2026-04-26 17:47 | 43.68949 | 7.60715 | 11958 ft | 365 kts | 210° |
| 2026-04-26 17:47 | 43.68230 | 7.60072 | 11880 ft | 365 kts | 217° |
| 2026-04-26 17:47 | 43.65090 | 7.56204 | 11463 ft | 363 kts | 223° |
| 2026-04-26 17:47 | 43.63248 | 7.53829 | 11237 ft | 361 kts | 223° |
| 2026-04-26 17:48 | 43.61415 | 7.51463 | 11138 ft | 360 kts | 223° |
| 2026-04-26 17:48 | 43.59582 | 7.49095 | 11146 ft | 361 kts | 223° |
| 2026-04-26 17:48 | 43.57746 | 7.46723 | 11162 ft | 363 kts | 223° |
| 2026-04-26 17:48 | 43.55906 | 7.44331 | 11160 ft | 364 kts | 223° |
| 2026-04-26 17:49 | 43.54064 | 7.41936 | 11161 ft | 364 kts | 223° |
| 2026-04-26 17:49 | 43.52223 | 7.39543 | 11153 ft | 364 kts | 223° |
| 2026-04-26 17:49 | 43.50385 | 7.37159 | 11154 ft | 358 kts | 223° |
| 2026-04-26 17:49 | 43.48603 | 7.34845 | 11139 ft | 345 kts | 223° |
| 2026-04-26 17:50 | 43.46887 | 7.32618 | 11013 ft | 333 kts | 223° |
| 2026-04-26 17:50 | 43.45248 | 7.30493 | 10862 ft | 313 kts | 223° |
| 2026-04-26 17:50 | 43.43691 | 7.28473 | 10434 ft | 304 kts | 223° |
| 2026-04-26 17:50 | 43.42163 | 7.26492 | 9859 ft | 301 kts | 223° |
| 2026-04-26 17:51 | 43.40648 | 7.24524 | 9224 ft | 298 kts | 223° |
| 2026-04-26 17:51 | 43.39161 | 7.22571 | 8632 ft | 294 kts | 223° |
| 2026-04-26 17:51 | 43.37701 | 7.20629 | 8018 ft | 290 kts | 223° |
| 2026-04-26 17:51 | 43.36262 | 7.18706 | 7422 ft | 287 kts | 223° |
| 2026-04-26 17:52 | 43.34845 | 7.16803 | 6836 ft | 283 kts | 223° |
| 2026-04-26 17:52 | 43.33447 | 7.14920 | 6230 ft | 280 kts | 223° |
| 2026-04-26 17:52 | 43.32514 | 7.13663 | 5878 ft | 276 kts | 223° |
| 2026-04-26 17:52 | 43.31164 | 7.11848 | 5393 ft | 267 kts | 223° |
| 2026-04-26 17:53 | 43.29864 | 7.10100 | 5031 ft | 256 kts | 223° |
| 2026-04-26 17:53 | 43.28785 | 7.08283 | 4679 ft | 245 kts | 245° |
| 2026-04-26 17:53 | 43.28488 | 7.06003 | 4428 ft | 241 kts | 276° |
| 2026-04-26 17:54 | 43.29931 | 7.01970 | 4039 ft | 236 kts | 303° |
| 2026-04-26 17:54 | 43.30849 | 7.00092 | 4017 ft | 238 kts | 303° |
| 2026-04-26 17:54 | 43.31775 | 6.98212 | 4022 ft | 238 kts | 303° |
| 2026-04-26 17:54 | 43.32688 | 6.96357 | 4020 ft | 238 kts | 303° |
| 2026-04-26 17:55 | 43.33631 | 6.94449 | 4011 ft | 238 kts | 303° |
| 2026-04-26 17:55 | 43.34721 | 6.92789 | 4011 ft | 239 kts | 324° |
| 2026-04-26 17:55 | 43.36264 | 6.91919 | 4016 ft | 239 kts | 353° |
| 2026-04-26 17:55 | 43.37885 | 6.92106 | 4021 ft | 239 kts | 16° |
| 2026-04-26 17:56 | 43.39472 | 6.92707 | 4014 ft | 227 kts | 16° |
| 2026-04-26 17:56 | 43.42431 | 6.93820 | 4007 ft | 218 kts | 16° |
| 2026-04-26 17:57 | 43.45316 | 6.94901 | 4013 ft | 214 kts | 15° |
| 2026-04-26 17:57 | 43.46718 | 6.95563 | 4004 ft | 213 kts | 28° |
| 2026-04-26 17:57 | 43.47919 | 6.96747 | 4009 ft | 213 kts | 45° |
| 2026-04-26 17:57 | 43.48964 | 6.98193 | 4015 ft | 213 kts | 45° |
| 2026-04-26 17:58 | 43.52145 | 7.02542 | 3620 ft | 220 kts | 45° |
| 2026-04-26 17:59 | 43.54344 | 7.05545 | 3013 ft | 225 kts | 45° |
| 2026-04-26 17:59 | 43.55432 | 7.07029 | 2998 ft | 217 kts | 45° |
| 2026-04-26 17:59 | 43.56495 | 7.08485 | 3007 ft | 214 kts | 46° |
| 2026-04-26 17:59 | 43.57248 | 7.10215 | 3048 ft | 211 kts | 79° |
| 2026-04-26 18:00 | 43.57118 | 7.12227 | 3299 ft | 218 kts | 114° |
| 2026-04-26 18:00 | 43.56157 | 7.13827 | 3553 ft | 221 kts | 148° |
| 2026-04-26 18:00 | 43.54705 | 7.14516 | 3807 ft | 223 kts | 170° |
| 2026-04-26 18:00 | 43.53140 | 7.14825 | 3969 ft | 225 kts | 173° |
| 2026-04-26 18:01 | 43.51585 | 7.15077 | 4005 ft | 225 kts | 173° |
| 2026-04-26 18:01 | 43.50032 | 7.15322 | 4016 ft | 225 kts | 173° |
| 2026-04-26 18:01 | 43.48482 | 7.15564 | 4016 ft | 224 kts | 173° |
| 2026-04-26 18:01 | 43.46949 | 7.15804 | 4019 ft | 224 kts | 173° |
| 2026-04-26 18:02 | 43.45397 | 7.16046 | 4009 ft | 224 kts | 173° |
| 2026-04-26 18:02 | 43.44347 | 7.16207 | 4019 ft | 224 kts | 173° |
| 2026-04-26 18:02 | 43.42293 | 7.16522 | 4022 ft | 224 kts | 173° |
| 2026-04-26 18:02 | 43.40720 | 7.16766 | 4020 ft | 224 kts | 173° |
| 2026-04-26 18:03 | 43.39179 | 7.17010 | 4013 ft | 221 kts | 173° |
| 2026-04-26 18:03 | 43.37656 | 7.17254 | 4024 ft | 220 kts | 173° |
| 2026-04-26 18:03 | 43.36135 | 7.17498 | 4022 ft | 220 kts | 173° |
| 2026-04-26 18:03 | 43.34611 | 7.17679 | 4017 ft | 220 kts | 184° |
| 2026-04-26 18:04 | 43.33198 | 7.16974 | 4020 ft | 220 kts | 218° |
| 2026-04-26 18:04 | 43.32305 | 7.15259 | 4018 ft | 229 kts | 252° |
| 2026-04-26 18:04 | 43.32137 | 7.13066 | 4020 ft | 235 kts | 270° |
| 2026-04-26 18:05 | 43.32341 | 7.08577 | 4019 ft | 236 kts | 273° |
| 2026-04-26 18:05 | 43.32468 | 7.06330 | 4015 ft | 236 kts | 274° |
| 2026-04-26 18:05 | 43.32591 | 7.04084 | 4020 ft | 236 kts | 273° |
| 2026-04-26 18:05 | 43.32712 | 7.01839 | 4020 ft | 236 kts | 273° |
| 2026-04-26 18:06 | 43.32835 | 6.99594 | 4020 ft | 236 kts | 273° |
| 2026-04-26 18:06 | 43.32961 | 6.97349 | 4020 ft | 236 kts | 273° |
| 2026-04-26 18:06 | 43.33085 | 6.95106 | 4019 ft | 236 kts | 273° |
| 2026-04-26 18:06 | 43.33206 | 6.92862 | 4020 ft | 236 kts | 273° |
| 2026-04-26 18:07 | 43.33327 | 6.90616 | 4020 ft | 236 kts | 273° |
| 2026-04-26 18:07 | 43.33453 | 6.88369 | 4014 ft | 236 kts | 273° |
| 2026-04-26 18:07 | 43.33578 | 6.86123 | 4014 ft | 236 kts | 273° |
| 2026-04-26 18:07 | 43.33660 | 6.84635 | 4015 ft | 236 kts | 274° |
| 2026-04-26 18:08 | 43.34042 | 6.81709 | 4014 ft | 237 kts | 298° |
| 2026-04-26 18:08 | 43.35149 | 6.80036 | 4020 ft | 236 kts | 331° |
| 2026-04-26 18:08 | 43.36649 | 6.79339 | 4020 ft | 221 kts | 350° |
| 2026-04-26 18:08 | 43.38127 | 6.79157 | 4014 ft | 207 kts | 8° |
| 2026-04-26 18:09 | 43.39424 | 6.79771 | 4047 ft | 193 kts | 33° |
| 2026-04-26 18:09 | 43.40351 | 6.81039 | 4024 ft | 187 kts | 58° |
| 2026-04-26 18:09 | 43.41041 | 6.82551 | 4010 ft | 187 kts | 59° |
| 2026-04-26 18:09 | 43.41738 | 6.84064 | 4010 ft | 188 kts | 58° |
| 2026-04-26 18:10 | 43.42446 | 6.85597 | 4011 ft | 192 kts | 59° |
| 2026-04-26 18:10 | 43.43162 | 6.87150 | 4004 ft | 192 kts | 58° |
| 2026-04-26 18:10 | 43.43865 | 6.88676 | 4014 ft | 191 kts | 58° |
| 2026-04-26 18:10 | 43.44584 | 6.90242 | 4017 ft | 191 kts | 58° |
| 2026-04-26 18:11 | 43.45295 | 6.91789 | 4011 ft | 191 kts | 58° |
| 2026-04-26 18:11 | 43.46005 | 6.93335 | 4010 ft | 191 kts | 58° |
| 2026-04-26 18:11 | 43.46716 | 6.94881 | 4009 ft | 191 kts | 58° |
| 2026-04-26 18:11 | 43.47561 | 6.96289 | 4011 ft | 191 kts | 45° |
| 2026-04-26 18:12 | 43.48512 | 6.97571 | 4009 ft | 191 kts | 45° |
| 2026-04-26 18:12 | 43.49458 | 6.98857 | 4010 ft | 191 kts | 45° |
| 2026-04-26 18:12 | 43.50404 | 7.00147 | 4014 ft | 191 kts | 45° |
| 2026-04-26 18:12 | 43.51356 | 7.01444 | 3853 ft | 194 kts | 45° |
| 2026-04-26 18:13 | 43.52297 | 7.02730 | 3573 ft | 193 kts | 45° |
| 2026-04-26 18:13 | 43.53257 | 7.04044 | 3305 ft | 191 kts | 45° |
| 2026-04-26 18:13 | 43.54195 | 7.05327 | 3049 ft | 189 kts | 45° |
| 2026-04-26 18:13 | 43.54809 | 7.06166 | 2879 ft | 187 kts | 45° |
| 2026-04-26 18:14 | 43.56038 | 7.07849 | 2545 ft | 185 kts | 46° |
| 2026-04-26 18:14 | 43.56937 | 7.09080 | 2312 ft | 184 kts | 45° |
| 2026-04-26 18:14 | 43.57855 | 7.10337 | 2062 ft | 183 kts | 46° |
| 2026-04-26 18:14 | 43.58729 | 7.11533 | 1814 ft | 175 kts | 45° |
| 2026-04-26 18:15 | 43.59575 | 7.12693 | 1580 ft | 162 kts | 46° |
| 2026-04-26 18:15 | 43.60348 | 7.13755 | 1390 ft | 150 kts | 46° |
| 2026-04-26 18:15 | 43.61056 | 7.14725 | 1182 ft | 143 kts | 45° |
| 2026-04-26 18:15 | 43.61756 | 7.15685 | 1004 ft | 141 kts | 45° |
| 2026-04-26 18:16 | 43.62447 | 7.16634 | 822 ft | 140 kts | 45° |
| 2026-04-26 18:16 | 43.63830 | 7.18521 | 458 ft | 139 kts | 45° |
| 2026-04-26 18:16 | 43.64523 | 7.19480 | 274 ft | 139 kts | 46° |
| 2026-04-26 18:17 | 43.65207 | 7.20434 | 80 ft | 140 kts | 46° |
| 2026-04-26 18:17 | 43.65842 | 7.21314 | 23 ft | 109 kts | 45° |
| 2026-04-26 18:17 | 43.66257 | 7.21876 | 22 ft | 51 kts | 42° |
| 2026-04-26 18:17 | 43.66437 | 7.22021 | 21 ft | 14 kts | 20° |
| 2026-04-26 18:18 | 43.66523 | 7.22054 | 21 ft | 12 kts | 351° |
| 2026-04-26 18:18 | 43.66592 | 7.21963 | 21 ft | 14 kts | 316° |
| 2026-04-26 18:18 | 43.66642 | 7.21894 | 21 ft | 11 kts | 302° |
| 2026-04-26 18:18 | 43.66617 | 7.21815 | 21 ft | 8 kts | 226° |
| 2026-04-26 18:19 | 43.66565 | 7.21742 | 21 ft | 13 kts | 225° |
| 2026-04-26 18:19 | 43.66492 | 7.21644 | 21 ft | 11 kts | 224° |
| 2026-04-26 18:19 | 43.66429 | 7.21558 | 21 ft | 15 kts | 224° |
| 2026-04-26 18:19 | 43.66362 | 7.21451 | 21 ft | 16 kts | 235° |
| 2026-04-26 18:20 | 43.66346 | 7.21373 | 21 ft | 2 kts | 262° |
| 2026-04-26 18:20 | 43.66360 | 7.21343 | 23 ft | 6 kts | 337° |
| 2026-04-26 18:20 | 43.66409 | 7.21331 | 21 ft | 8 kts | 351° |
| 2026-04-26 18:20 | 43.66417 | 7.21330 | 21 ft | 2 kts | 350° |
| 2026-04-26 18:21 | 43.66422 | 7.21328 | 21 ft | 0 kts | 349° |